createdAt,value
2017-12-21T00:01:34.205Z,13.93
2017-12-21T00:04:01.664Z,14.83
2017-12-21T00:06:29.188Z,14.70
2017-12-21T00:08:56.645Z,14.27
2017-12-21T00:11:24.104Z,15.10
2017-12-21T00:13:51.588Z,14.07
2017-12-21T00:16:19.044Z,13.53
2017-12-21T00:18:46.520Z,15.23
2017-12-21T00:21:13.980Z,14.70
2017-12-21T00:23:41.460Z,14.70
2017-12-21T00:26:08.937Z,15.30
2017-12-21T00:28:36.420Z,14.07
2017-12-21T00:31:03.936Z,15.30
2017-12-21T00:33:31.424Z,16.40
2017-12-21T00:35:58.971Z,16.10
2017-12-21T00:38:26.451Z,15.30
2017-12-21T00:40:53.932Z,15.70
2017-12-21T00:43:21.450Z,16.07
2017-12-21T00:45:48.921Z,15.47
2017-12-21T00:48:16.488Z,15.70
2017-12-21T00:50:43.935Z,15.23
2017-12-21T00:53:11.397Z,13.90
2017-12-21T00:55:38.884Z,15.80
2017-12-21T00:58:06.348Z,15.53
2017-12-21T01:00:33.828Z,16.17
2017-12-21T01:03:01.284Z,15.90
2017-12-21T01:05:28.754Z,14.47
2017-12-21T01:07:56.220Z,14.63
2017-12-21T01:10:23.715Z,16.13
2017-12-21T01:12:51.176Z,15.60
2017-12-21T01:15:18.668Z,13.40
2017-12-21T01:17:46.129Z,13.53
2017-12-21T01:20:13.604Z,13.63
2017-12-21T01:22:41.127Z,14.10
2017-12-21T01:25:08.608Z,12.97
2017-12-21T01:27:36.927Z,12.30
2017-12-21T01:30:04.400Z,13.40
2017-12-21T01:32:31.855Z,12.13
2017-12-21T01:34:59.332Z,12.50
2017-12-21T01:37:26.788Z,13.53
2017-12-21T01:39:54.360Z,13.53
2017-12-21T01:42:21.820Z,13.43
2017-12-21T01:44:50.203Z,12.10
2017-12-21T01:47:17.671Z,11.77
2017-12-21T01:49:45.128Z,11.00
2017-12-21T01:52:12.607Z,11.17
2017-12-21T01:54:40.064Z,12.23
2017-12-21T01:57:07.537Z,10.53
2017-12-21T01:59:34.983Z,11.53
2017-12-21T02:02:02.460Z,10.60
2017-12-21T02:04:29.912Z,11.07
2017-12-21T02:06:57.371Z,9.93
2017-12-21T02:09:24.828Z,10.87
2017-12-21T02:11:52.610Z,9.97
2017-12-21T02:14:20.088Z,10.97
2017-12-21T02:16:47.576Z,10.73
2017-12-21T02:19:15.013Z,9.13
2017-12-21T02:21:42.563Z,9.90
2017-12-21T02:24:10.018Z,9.90
2017-12-21T02:26:37.487Z,9.73
2017-12-21T02:29:04.936Z,9.97
2017-12-21T02:31:32.411Z,9.23
2017-12-21T02:33:59.870Z,10.47
2017-12-21T02:36:27.394Z,9.30
2017-12-21T02:38:54.850Z,10.57
2017-12-21T02:41:22.304Z,10.80
2017-12-21T02:43:49.893Z,8.50
2017-12-21T02:46:17.351Z,9.20
2017-12-21T02:48:44.819Z,10.27
2017-12-21T02:51:12.259Z,8.33
2017-12-21T02:53:39.731Z,10.10
2017-12-21T02:56:07.180Z,9.47
2017-12-21T02:58:34.651Z,8.70
2017-12-21T03:01:02.098Z,9.33
2017-12-21T03:03:29.577Z,9.33
2017-12-21T03:05:57.014Z,7.70
2017-12-21T03:08:24.524Z,8.90
2017-12-21T03:10:51.954Z,7.50
2017-12-21T03:13:19.415Z,9.23
2017-12-21T03:15:46.897Z,7.47
2017-12-21T03:18:14.343Z,7.43
2017-12-21T03:20:41.802Z,8.70
2017-12-21T03:23:09.243Z,8.63
2017-12-21T03:25:36.737Z,7.33
2017-12-21T03:28:04.196Z,7.50
2017-12-21T03:30:31.647Z,7.30
2017-12-21T03:32:59.107Z,7.40
2017-12-21T03:35:26.562Z,8.97
2017-12-21T03:37:54.011Z,7.93
2017-12-21T03:40:21.498Z,9.07
2017-12-21T03:42:48.947Z,9.70
2017-12-21T03:45:16.412Z,8.90
2017-12-21T03:47:43.883Z,9.03
2017-12-21T03:50:11.355Z,9.30
2017-12-21T03:52:38.819Z,9.10
2017-12-21T03:55:06.265Z,8.27
2017-12-21T03:57:33.773Z,8.57
2017-12-21T04:00:01.226Z,9.20
2017-12-21T04:02:28.708Z,8.43
2017-12-21T04:04:56.151Z,8.83
2017-12-21T04:07:23.628Z,10.37
2017-12-21T04:09:51.077Z,9.50
2017-12-21T04:12:18.547Z,8.83
2017-12-21T04:14:45.986Z,10.30
2017-12-21T04:17:13.443Z,8.30
2017-12-21T04:19:40.896Z,9.10
2017-12-21T04:22:08.372Z,9.17
2017-12-21T04:24:35.817Z,9.33
2017-12-21T04:27:03.279Z,9.33
2017-12-21T04:29:30.723Z,8.97
2017-12-21T04:31:58.183Z,10.60
2017-12-21T04:34:25.637Z,9.80
2017-12-21T04:36:53.079Z,8.93
2017-12-21T04:39:20.566Z,9.40
2017-12-21T04:41:48.037Z,10.30
2017-12-21T04:44:15.556Z,11.50
2017-12-21T04:46:43.007Z,10.80
2017-12-21T04:49:10.479Z,11.80
2017-12-21T04:51:37.927Z,10.53
2017-12-21T04:54:05.395Z,9.90
2017-12-21T04:56:32.848Z,9.70
2017-12-21T04:59:00.322Z,9.43
2017-12-21T05:01:27.774Z,9.43
2017-12-21T05:03:55.240Z,9.50
2017-12-21T05:06:22.682Z,8.97
2017-12-21T05:08:50.140Z,9.97
2017-12-21T05:11:17.582Z,9.57
2017-12-21T05:13:45.036Z,10.23
2017-12-21T05:16:12.515Z,10.53
2017-12-21T05:18:39.957Z,8.87
2017-12-21T05:21:07.408Z,8.50
2017-12-21T05:23:34.856Z,9.13
2017-12-21T05:26:02.325Z,9.80
2017-12-21T05:28:29.757Z,7.83
2017-12-21T05:30:57.224Z,7.97
2017-12-21T05:33:24.667Z,7.70
2017-12-21T05:35:52.136Z,8.00
2017-12-21T05:38:19.568Z,8.40
2017-12-21T05:40:47.035Z,8.90
2017-12-21T05:43:14.504Z,8.57
2017-12-21T05:45:41.971Z,9.10
2017-12-21T05:48:09.417Z,8.53
2017-12-21T05:50:36.879Z,7.80
2017-12-21T05:53:04.316Z,8.33
2017-12-21T05:55:31.800Z,9.10
2017-12-21T05:57:59.255Z,9.20
2017-12-21T06:00:26.703Z,9.80
2017-12-21T06:02:54.193Z,10.03
2017-12-21T06:05:21.731Z,10.70
2017-12-21T06:07:49.206Z,11.43
2017-12-21T06:10:16.659Z,10.70
2017-12-21T06:12:44.187Z,9.93
2017-12-21T06:15:11.638Z,11.07
2017-12-21T06:17:39.110Z,10.80
2017-12-21T06:20:06.585Z,10.23
2017-12-21T06:22:34.038Z,9.20
2017-12-21T06:25:01.526Z,9.23
2017-12-21T06:27:29.008Z,9.40
2017-12-21T06:29:56.508Z,9.47
2017-12-21T06:32:24.003Z,8.57
2017-12-21T06:34:51.455Z,9.57
2017-12-21T06:37:18.924Z,9.50
2017-12-21T06:39:46.393Z,8.10
2017-12-21T06:42:13.841Z,8.57
2017-12-21T06:44:41.269Z,7.50
2017-12-21T06:47:08.774Z,7.40
2017-12-21T06:49:36.994Z,8.10
2017-12-21T06:52:04.497Z,8.30
2017-12-21T06:54:31.980Z,9.40
2017-12-21T06:56:59.427Z,8.17
2017-12-21T06:59:26.900Z,9.33
2017-12-21T07:01:54.339Z,9.00
2017-12-21T07:04:21.810Z,9.53
2017-12-21T07:06:49.583Z,8.93
2017-12-21T07:09:17.043Z,8.40
2017-12-21T07:11:44.496Z,8.20
2017-12-21T07:14:11.964Z,9.80
2017-12-21T07:16:39.397Z,7.73
2017-12-21T07:19:06.870Z,8.80
2017-12-21T07:21:34.302Z,8.57
2017-12-21T07:24:01.754Z,8.00
2017-12-21T07:26:29.199Z,9.00
2017-12-21T07:28:56.769Z,8.47
2017-12-21T07:31:24.230Z,8.53
2017-12-21T07:33:51.703Z,8.13
2017-12-21T07:36:19.139Z,8.30
2017-12-21T07:38:46.569Z,8.80
2017-12-21T07:41:14.031Z,8.47
2017-12-21T07:43:41.466Z,8.57
2017-12-21T07:46:08.943Z,9.60
2017-12-21T07:48:36.391Z,7.93
2017-12-21T07:51:03.883Z,10.17
2017-12-21T07:53:31.322Z,9.93
2017-12-21T07:55:58.852Z,10.10
2017-12-21T07:58:26.304Z,8.50
2017-12-21T08:00:53.773Z,9.30
2017-12-21T08:03:21.223Z,9.40
2017-12-21T08:05:48.702Z,10.37
2017-12-21T08:08:16.148Z,10.20
2017-12-21T08:10:43.615Z,9.50
2017-12-21T08:13:11.079Z,9.90
2017-12-21T08:15:38.537Z,8.70
2017-12-21T08:18:06.001Z,6.53
2017-12-21T08:20:33.555Z,6.43
2017-12-21T08:23:01.031Z,7.00
2017-12-21T08:25:28.461Z,7.87
2017-12-21T08:27:55.931Z,8.17
2017-12-21T08:30:23.439Z,8.70
2017-12-21T08:32:50.899Z,8.10
2017-12-21T08:35:18.350Z,7.90
2017-12-21T08:37:45.820Z,8.47
2017-12-21T08:40:13.263Z,8.37
2017-12-21T08:42:40.778Z,8.20
2017-12-21T08:45:08.239Z,7.63
2017-12-21T08:47:35.715Z,8.30
2017-12-21T08:50:03.154Z,8.20
2017-12-21T08:52:30.615Z,7.10
2017-12-21T08:54:58.045Z,6.30
2017-12-21T08:57:25.515Z,7.40
2017-12-21T08:59:53.013Z,7.47
2017-12-21T09:02:20.437Z,7.37
2017-12-21T09:04:47.875Z,7.30
2017-12-21T09:07:15.377Z,6.60
2017-12-21T09:09:42.819Z,7.20
2017-12-21T09:12:10.504Z,7.27
2017-12-21T09:14:37.991Z,7.37
2017-12-21T09:17:05.435Z,8.23
2017-12-21T09:19:32.888Z,7.73
2017-12-21T09:22:00.330Z,8.20
2017-12-21T09:24:27.840Z,7.50
2017-12-21T09:26:55.279Z,7.20
2017-12-21T09:29:22.739Z,6.57
2017-12-21T09:31:50.183Z,4.50
2017-12-21T09:34:17.644Z,5.73
2017-12-21T09:36:45.090Z,5.67
2017-12-21T09:39:12.555Z,6.60
2017-12-21T09:41:39.999Z,6.30
2017-12-21T09:44:07.649Z,5.90
2017-12-21T09:46:35.091Z,7.20
2017-12-21T09:49:02.631Z,14.77
2017-12-21T09:51:30.079Z,7.43
2017-12-21T09:53:57.546Z,6.70
2017-12-21T09:56:25.016Z,6.87
2017-12-21T09:58:52.463Z,6.07
2017-12-21T10:01:19.917Z,10.80
2017-12-21T10:03:47.367Z,11.20
2017-12-21T10:06:14.835Z,11.70
2017-12-21T10:08:42.283Z,7.67
2017-12-21T10:11:09.748Z,8.70
2017-12-21T10:13:37.191Z,8.40
2017-12-21T10:16:04.660Z,6.83
2017-12-21T10:18:32.108Z,7.37
2017-12-21T10:20:59.558Z,6.10
2017-12-21T10:23:26.997Z,5.20
2017-12-21T10:25:55.170Z,5.40
2017-12-21T10:28:22.616Z,3.93
2017-12-21T10:30:50.066Z,3.83
2017-12-21T10:33:17.493Z,3.47
2017-12-21T10:35:44.936Z,3.70
2017-12-21T10:38:12.402Z,3.53
2017-12-21T10:40:39.853Z,4.00
2017-12-21T10:43:07.367Z,3.50
2017-12-21T10:45:34.811Z,4.30
2017-12-21T10:48:02.276Z,4.60
2017-12-21T10:50:29.736Z,4.70
2017-12-21T10:52:57.181Z,3.70
2017-12-21T10:55:24.614Z,3.20
2017-12-21T10:57:52.080Z,3.10
2017-12-21T11:00:19.516Z,3.77
2017-12-21T11:02:46.995Z,3.50
2017-12-21T11:05:14.438Z,3.50
2017-12-21T11:07:41.942Z,3.50
2017-12-21T11:10:09.386Z,3.87
2017-12-21T11:12:36.836Z,3.70
2017-12-21T11:15:04.300Z,3.77
2017-12-21T11:17:31.756Z,3.20
2017-12-21T11:19:59.222Z,10.93
2017-12-21T11:22:26.669Z,4.00
2017-12-21T11:24:54.125Z,3.30
2017-12-21T11:27:21.572Z,3.13
2017-12-21T11:29:49.034Z,3.40
2017-12-21T11:32:16.487Z,2.70
2017-12-21T11:34:43.951Z,2.83
2017-12-21T11:37:11.392Z,2.90
2017-12-21T11:39:38.886Z,2.80
2017-12-21T11:42:06.332Z,3.10
2017-12-21T11:44:33.789Z,3.03
2017-12-21T11:47:01.246Z,2.57
2017-12-21T11:49:28.793Z,2.47
2017-12-21T11:51:56.495Z,2.70
2017-12-21T11:54:23.961Z,3.13
2017-12-21T11:56:51.404Z,3.10
2017-12-21T11:59:18.863Z,3.07
2017-12-21T12:01:46.293Z,2.90
2017-12-21T12:04:13.735Z,3.60
2017-12-21T12:06:41.192Z,2.67
2017-12-21T12:09:08.639Z,3.50
2017-12-21T12:11:36.108Z,4.10
2017-12-21T12:14:03.542Z,2.90
2017-12-21T12:16:30.999Z,2.50
2017-12-21T12:18:58.444Z,3.20
2017-12-21T12:21:25.907Z,3.03
2017-12-21T12:23:53.355Z,3.30
2017-12-21T12:26:20.820Z,2.93
2017-12-21T12:28:48.253Z,3.93
2017-12-21T12:31:15.724Z,5.07
2017-12-21T12:33:43.185Z,4.80
2017-12-21T12:36:10.651Z,4.20
2017-12-21T12:38:38.091Z,4.00
2017-12-21T12:41:05.586Z,4.30
2017-12-21T12:43:33.022Z,5.53
2017-12-21T12:46:00.467Z,4.40
2017-12-21T12:48:27.936Z,4.07
2017-12-21T12:50:55.398Z,4.50
2017-12-21T12:53:22.969Z,3.80
2017-12-21T12:55:50.397Z,3.60
2017-12-21T12:58:17.864Z,4.80
2017-12-21T13:00:45.798Z,4.37
2017-12-21T13:03:13.267Z,3.77
2017-12-21T13:05:40.716Z,3.27
2017-12-21T13:08:08.200Z,4.43
2017-12-21T13:10:35.653Z,3.73
2017-12-21T13:13:03.152Z,4.23
2017-12-21T13:15:30.702Z,4.10
2017-12-21T13:17:58.165Z,4.70
2017-12-21T13:20:25.631Z,3.97
2017-12-21T13:22:53.076Z,3.70
2017-12-21T13:25:20.546Z,3.90
2017-12-21T13:27:48.021Z,3.53
2017-12-21T13:30:15.483Z,3.87
2017-12-21T13:32:42.941Z,4.00
2017-12-21T13:35:10.408Z,3.27
2017-12-21T13:37:37.845Z,4.00
2017-12-21T13:40:05.306Z,4.57
2017-12-21T13:42:33.059Z,3.53
2017-12-21T13:45:00.558Z,3.63
2017-12-21T13:47:28.030Z,4.00
2017-12-21T13:49:55.507Z,3.47
2017-12-21T13:52:22.947Z,3.50
2017-12-21T13:54:50.399Z,2.53
2017-12-21T13:57:17.849Z,3.23
2017-12-21T13:59:45.304Z,2.97
2017-12-21T14:02:12.774Z,3.03
2017-12-21T14:04:40.228Z,3.40
2017-12-21T14:07:07.681Z,2.90
2017-12-21T14:09:35.128Z,3.10
2017-12-21T14:12:02.594Z,3.37
2017-12-21T14:14:30.040Z,2.60
2017-12-21T14:16:57.490Z,3.63
2017-12-21T14:19:24.937Z,3.13
2017-12-21T14:21:52.411Z,4.03
2017-12-21T14:24:19.858Z,3.40
2017-12-21T14:26:47.339Z,3.93
2017-12-21T14:29:14.770Z,4.10
2017-12-21T14:31:42.215Z,3.97
2017-12-21T14:34:09.707Z,3.57
2017-12-21T14:36:37.137Z,4.10
2017-12-21T14:39:04.605Z,3.93
2017-12-21T14:41:32.041Z,4.03
2017-12-21T14:43:59.508Z,3.17
2017-12-21T14:46:26.958Z,2.60
2017-12-21T14:48:54.424Z,2.83
2017-12-21T14:51:21.867Z,3.03
2017-12-21T14:53:49.336Z,3.03
2017-12-21T14:56:16.780Z,3.73
2017-12-21T14:58:44.233Z,4.50
2017-12-21T15:01:11.688Z,2.70
2017-12-21T15:03:39.154Z,3.13
2017-12-21T15:06:06.614Z,2.80
2017-12-21T15:08:34.046Z,2.23
2017-12-21T15:11:01.512Z,3.10
2017-12-21T15:13:28.959Z,3.20
2017-12-21T15:15:56.415Z,2.93
2017-12-21T15:18:24.246Z,2.17
2017-12-21T15:20:51.789Z,2.47
2017-12-21T15:23:19.508Z,2.27
2017-12-21T15:25:46.967Z,2.70
2017-12-21T15:28:14.416Z,2.40
2017-12-21T15:30:41.882Z,2.57
2017-12-21T15:33:09.328Z,2.60
2017-12-21T15:35:36.824Z,2.80
2017-12-21T15:38:04.258Z,2.47
2017-12-21T15:40:31.707Z,2.30
2017-12-21T15:42:59.162Z,2.60
2017-12-21T15:45:26.620Z,2.03
2017-12-21T15:47:54.106Z,2.20
2017-12-21T15:50:21.557Z,2.33
2017-12-21T15:52:49.026Z,3.00
2017-12-21T15:55:16.481Z,3.23
2017-12-21T15:57:43.955Z,2.60
2017-12-21T16:00:11.403Z,2.87
2017-12-21T16:02:38.867Z,4.07
2017-12-21T16:05:06.416Z,2.30
2017-12-21T16:07:33.880Z,2.40
2017-12-21T16:10:01.323Z,2.87
2017-12-21T16:12:28.800Z,1.80
2017-12-21T16:14:56.251Z,2.40
2017-12-21T16:17:23.710Z,2.50
2017-12-21T16:19:51.154Z,2.33
2017-12-21T16:22:18.606Z,1.90
2017-12-21T16:24:46.117Z,2.07
2017-12-21T16:27:13.575Z,2.67
2017-12-21T16:29:41.043Z,2.50
2017-12-21T16:32:08.484Z,1.90
2017-12-21T16:34:35.952Z,2.17
2017-12-21T16:37:03.400Z,2.40
2017-12-21T16:39:30.870Z,2.50
2017-12-21T16:41:58.335Z,2.87
2017-12-21T16:44:25.795Z,2.37
2017-12-21T16:46:53.300Z,2.73
2017-12-21T16:49:20.791Z,2.40
2017-12-21T16:51:48.229Z,2.67
2017-12-21T16:54:15.678Z,2.83
2017-12-21T16:56:43.158Z,2.43
2017-12-21T16:59:10.597Z,2.70
2017-12-21T17:01:38.067Z,2.57
2017-12-21T17:04:05.520Z,2.13
2017-12-21T17:06:32.996Z,1.93
2017-12-21T17:09:00.444Z,2.50
2017-12-21T17:11:27.902Z,2.00
2017-12-21T17:13:55.349Z,2.27
2017-12-21T17:16:22.816Z,2.87
2017-12-21T17:18:50.263Z,2.20
2017-12-21T17:21:17.727Z,2.80
2017-12-21T17:23:45.174Z,2.60
2017-12-21T17:26:12.641Z,1.83
2017-12-21T17:28:40.077Z,2.13
2017-12-21T17:31:07.601Z,2.40
2017-12-21T17:33:35.001Z,1.90
2017-12-21T17:36:02.447Z,2.00
2017-12-21T17:38:29.913Z,2.30
2017-12-21T17:40:57.350Z,1.70
2017-12-21T17:43:24.864Z,2.00
2017-12-21T17:45:52.279Z,2.10
2017-12-21T17:48:19.744Z,1.57
2017-12-21T17:50:47.176Z,1.90
2017-12-21T17:53:14.694Z,1.70
2017-12-21T17:55:42.135Z,1.70
2017-12-21T17:58:09.600Z,2.30
2017-12-21T18:00:37.048Z,2.10
2017-12-21T18:03:04.512Z,2.30
2017-12-21T18:05:31.973Z,2.27
2017-12-21T18:07:59.462Z,1.97
2017-12-21T18:10:26.899Z,2.50
2017-12-21T18:12:54.355Z,2.90
2017-12-21T18:15:21.792Z,2.50
2017-12-21T18:17:49.234Z,3.23
2017-12-21T18:20:16.699Z,4.27
2017-12-21T18:22:44.133Z,4.90
2017-12-21T18:25:11.594Z,2.97
2017-12-21T18:27:39.043Z,2.30
2017-12-21T18:30:06.498Z,2.20
2017-12-21T18:32:33.939Z,2.40
2017-12-21T18:35:01.403Z,2.03
2017-12-21T18:37:28.834Z,2.43
2017-12-21T18:39:56.294Z,2.60
2017-12-21T18:42:23.753Z,2.87
2017-12-21T18:44:51.224Z,2.67
2017-12-21T18:47:18.674Z,2.93
2017-12-21T18:49:46.120Z,3.90
2017-12-21T18:52:13.587Z,2.80
2017-12-21T18:54:41.023Z,2.70
2017-12-21T18:57:08.510Z,2.03
2017-12-21T18:59:35.951Z,3.30
2017-12-21T19:02:03.433Z,2.93
2017-12-21T19:04:30.865Z,2.97
2017-12-21T19:06:58.324Z,2.43
2017-12-21T19:09:25.761Z,2.90
2017-12-21T19:11:53.236Z,2.93
2017-12-21T19:14:20.775Z,4.67
2017-12-21T19:16:48.226Z,3.47
2017-12-21T19:19:15.675Z,3.50
2017-12-21T19:21:43.139Z,4.10
2017-12-21T19:24:10.648Z,4.80
2017-12-21T19:26:38.141Z,5.40
2017-12-21T19:29:05.593Z,6.00
2017-12-21T19:31:33.051Z,5.37
2017-12-21T19:34:00.521Z,4.90
2017-12-21T19:36:28.183Z,3.90
2017-12-21T19:38:55.638Z,3.70
2017-12-21T19:41:23.095Z,3.93
2017-12-21T19:43:50.553Z,3.87
2017-12-21T19:46:17.999Z,3.17
2017-12-21T19:48:45.453Z,3.50
2017-12-21T19:51:12.895Z,3.60
2017-12-21T19:53:40.360Z,4.47
2017-12-21T19:56:07.803Z,4.10
2017-12-21T19:58:35.253Z,4.33
2017-12-21T20:01:02.692Z,4.37
2017-12-21T20:03:30.153Z,4.50
2017-12-21T20:05:57.604Z,4.20
2017-12-21T20:08:25.065Z,3.90
2017-12-21T20:10:52.505Z,4.00
2017-12-21T20:13:19.987Z,3.97
2017-12-21T20:15:47.455Z,3.47
2017-12-21T20:18:14.898Z,3.90
2017-12-21T20:20:42.382Z,4.17
2017-12-21T20:23:09.833Z,3.50
2017-12-21T20:25:37.384Z,3.57
2017-12-21T20:28:04.827Z,5.30
2017-12-21T20:30:32.305Z,4.57
2017-12-21T20:32:59.747Z,6.73
2017-12-21T20:35:27.202Z,4.83
2017-12-21T20:37:54.655Z,4.47
2017-12-21T20:40:22.120Z,5.00
2017-12-21T20:42:49.567Z,5.43
2017-12-21T20:45:17.038Z,5.40
2017-12-21T20:47:44.485Z,5.70
2017-12-21T20:50:11.927Z,4.27
2017-12-21T20:52:39.396Z,4.80
2017-12-21T20:55:06.892Z,4.40
2017-12-21T20:57:34.351Z,4.93
2017-12-21T21:00:01.806Z,5.40
2017-12-21T21:02:29.294Z,6.00
2017-12-21T21:04:56.721Z,6.07
2017-12-21T21:07:24.229Z,6.07
2017-12-21T21:09:51.738Z,5.80
2017-12-21T21:12:19.163Z,5.27
2017-12-21T21:14:46.627Z,6.37
2017-12-21T21:17:14.130Z,7.10
2017-12-21T21:19:41.576Z,7.30
2017-12-21T21:22:09.015Z,7.20
2017-12-21T21:24:36.504Z,6.93
2017-12-21T21:27:03.983Z,7.80
2017-12-21T21:29:31.450Z,7.93
2017-12-21T21:31:58.948Z,8.47
2017-12-21T21:34:26.415Z,9.20
2017-12-21T21:36:53.867Z,9.40
2017-12-21T21:39:21.335Z,8.70
2017-12-21T21:41:48.810Z,9.00
2017-12-21T21:44:16.287Z,8.00
2017-12-21T21:46:43.725Z,8.87
2017-12-21T21:49:11.187Z,8.60
2017-12-21T21:51:38.632Z,7.40
2017-12-21T21:54:06.155Z,8.90
2017-12-21T21:56:33.599Z,7.13
2017-12-21T21:59:01.044Z,8.30
2017-12-21T22:01:28.517Z,7.33
2017-12-21T22:03:55.978Z,8.23
2017-12-21T22:06:23.434Z,7.90
2017-12-21T22:08:50.865Z,8.13
2017-12-21T22:11:18.327Z,7.63
2017-12-21T22:13:45.771Z,8.00
2017-12-21T22:16:13.280Z,8.67
2017-12-21T22:18:40.729Z,8.80
2017-12-21T22:21:08.297Z,9.00
2017-12-21T22:23:35.745Z,8.70
2017-12-21T22:26:03.210Z,7.70
2017-12-21T22:28:30.660Z,7.50
2017-12-21T22:30:58.173Z,7.20
2017-12-21T22:33:25.639Z,8.23
2017-12-21T22:35:53.103Z,8.53
2017-12-21T22:38:20.554Z,8.47
2017-12-21T22:40:48.059Z,9.20
2017-12-21T22:43:15.515Z,10.53
2017-12-21T22:45:42.963Z,9.50
2017-12-21T22:48:10.435Z,9.27
2017-12-21T22:50:38.951Z,10.60
2017-12-21T22:53:06.423Z,10.70
2017-12-21T22:55:33.948Z,9.10
2017-12-21T22:58:01.542Z,11.00
2017-12-21T23:00:29.257Z,12.67
2017-12-21T23:02:56.819Z,10.50
2017-12-21T23:05:24.280Z,12.60
2017-12-21T23:07:51.756Z,12.70
2017-12-21T23:10:19.219Z,13.50
2017-12-21T23:12:47.009Z,11.10
2017-12-21T23:15:14.630Z,11.17
2017-12-21T23:17:42.091Z,10.30
2017-12-21T23:20:09.568Z,10.77
2017-12-21T23:22:37.299Z,9.83
2017-12-21T23:25:04.772Z,10.03
2017-12-21T23:27:32.259Z,9.60
2017-12-21T23:29:59.727Z,9.20
2017-12-21T23:32:27.181Z,10.00
2017-12-21T23:34:54.645Z,10.67
2017-12-21T23:37:22.103Z,11.70
2017-12-21T23:39:50.171Z,8.80
2017-12-21T23:42:17.618Z,9.97
2017-12-21T23:44:45.087Z,9.90
2017-12-21T23:47:12.621Z,10.83
2017-12-21T23:49:40.141Z,9.90
2017-12-21T23:52:07.598Z,10.63
2017-12-21T23:54:35.055Z,10.20
2017-12-21T23:57:02.653Z,11.60
2017-12-21T23:59:30.099Z,11.47
